Latest Coastal Weather Observations for Taree Airport

IDN60701

Issued at 10:05 am EST Monday 22 September 2014 (issued every 10 minutes, with the page automatically refreshed every 10 minutes)

About coastal observations | Map of coastal stations | Coastal observations for NSW | Marine services | Other Formats
Station Details ID: 060141 Name: TAREE AIRPORT AWS Lat: -31.89 Lon: 152.51 Height: 8.0 m
Data from the previous 72 hours. | See also: Recent months at Taree Airport
Date/Time
EST
Temp

°C
Wind Pressure Rain
since 9am
mm
Weather Cloud Vis
km
Sea
Height
m
Swell
Dir
 
Speed
knots
Gust
knots
hPa Trend Height
m
Period
s
Dir
22/10:00am 19.0 SSE 7 10 1031.3 - 0.0 - Partly cloudy - - - - -
22/09:30am 17.8 SW 4 7 1031.4 - 0.0 - Partly cloudy - - - - -
22/09:00am 15.6 W 7 8 1031.5 - 0.0 - Partly cloudy - - - - -
22/08:30am 15.0 W 6 8 1031.3 - 0.0 - Partly cloudy - - - - -
22/08:00am 12.7 W 6 8 1031.2 - 0.0 - Partly cloudy - - - - -
22/07:30am 11.5 W 5 7 1031.2 - 0.0 - Partly cloudy - - - - -
22/07:00am 10.8 W 6 7 1030.7 - 0.0 - Partly cloudy - - - - -
22/06:30am 10.3 W 6 7 1030.2 - 0.0 - Cloudy - - - - -
22/06:00am 9.4 W 6 7 1029.8 - 0.0 - Mostly clear - - - - -
22/05:30am 9.1 W 5 6 1029.5 - 0.0 - - - - - - -
22/05:00am 9.3 WNW 5 6 1029.2 - 0.0 - - - - - - -
22/04:30am 9.4 W 6 7 1028.9 - 0.0 - - - - - - -
22/04:00am 9.4 W 4 6 1028.7 - 0.0 - - - - - - -
22/03:30am 9.7 W 4 5 1028.6 - 0.0 - - - - - - -
22/03:00am 9.8 CALM 0 3 1028.8 - 0.0 - Mostly clear - - - - -
22/02:30am 10.4 W 5 6 1028.9 - 0.0 - Partly cloudy - - - - -
22/02:00am 9.2 NW 3 5 1028.8 - 0.0 - - - - - - -
22/01:30am 10.4 W 7 8 1029.0 - 0.0 - - - - - - -
22/01:00am 10.5 WSW 5 6 1029.2 - 0.0 - - - - - - -
22/12:30am 10.6 W 4 5 1029.5 - 0.0 - - - - - - -
22/12:00am 10.9 WNW 3 4 1029.8 - 0.0 - - - - - - -
 
Date/Time
EST
Temp

°C
Wind Pressure Rain
since 9am
mm
Weather Cloud Vis
km
Sea
Height
m
Swell
Dir
 
Speed
knots
Gust
knots
hPa Trend Height
m
Period
s
Dir
21/11:30pm 11.4 CALM 0 0 1029.8 - 0.0 - Partly cloudy - - - - -
21/11:00pm 11.3 CALM 0 0 1029.9 - 0.0 - Partly cloudy - - - - -
21/10:30pm 11.7 WNW 2 5 1030.1 - 0.0 - Partly cloudy - - - - -
21/10:00pm 10.7 NW 4 5 1030.1 - 0.0 - - - - - - -
21/09:30pm 11.5 CALM 0 0 1030.0 - 0.0 - - - - - - -
21/09:00pm 11.2 CALM 0 3 1029.9 - 0.0 - - - - - - -
21/08:30pm 12.4 WNW 3 4 1029.7 - 0.0 - - - - - - -
21/08:00pm 13.4 CALM 0 0 1029.5 - 0.0 - - - - - - -
21/07:30pm 12.8 CALM 0 0 1029.3 - 0.0 - - - - - - -
21/07:00pm 14.3 CALM 0 0 1029.1 - 0.0 - - - - - - -
21/06:30pm 14.2 E 3 4 1028.4 - 0.0 - - - - - - -
21/06:00pm 15.3 E 4 4 1028.2 - 0.0 - - - - - - -
21/05:30pm 15.9 SE 5 7 1028.0 - 0.0 - - - - - - -
21/05:00pm 16.9 ESE 6 8 1027.6 - 0.0 - - - - - - -
21/04:30pm 17.4 ESE 7 10 1027.1 - 0.0 - Partly cloudy - - - - -
21/04:00pm 18.1 SE 9 14 1027.1 - 0.0 - - - - - - -
21/03:30pm 18.5 SE 10 15 1026.9 - 0.0 - - - - - - -
21/03:00pm 18.9 SE 11 14 1026.7 - 0.0 - Partly cloudy - - - - -
21/02:30pm 19.1 SE 10 14 1026.9 - 0.0 - - - - - - -
21/02:00pm 19.1 SE 10 14 1027.2 - 0.0 - - - - - - -
21/01:30pm 19.0 SE 11 15 1027.5 - 0.0 - - - - - - -
21/01:00pm 18.8 SE 10 16 1027.6 - 0.0 - - - - - - -
21/12:30pm 18.8 SE 11 16 1027.8 - 0.0 - - - - - - -
21/12:00pm 19.5 SE 11 15 1028.3 - 0.0 - - - - - - -
21/11:30am 19.3 ESE 10 14 1028.7 - 0.0 - Partly cloudy - - - - -
21/11:00am 19.4 ESE 9 14 1028.8 - 0.0 - - - - - - -
21/10:30am 19.4 SE 9 15 1029.0 - 0.0 - Partly cloudy - - - - -
21/10:00am 17.8 S 5 8 1029.1 - 0.0 - Partly cloudy - - - - -
21/09:30am 18.0 SW 4 6 1029.1 - 0.0 - Partly cloudy - - - - -
21/09:00am 17.3 WSW 5 7 1029.0 - 0.0 - - - - - - -
21/08:30am 15.6 W 6 9 1029.0 - 0.0 - Partly cloudy - - - - -
21/08:00am 14.7 W 7 10 1028.7 - 0.0 - Partly cloudy - - - - -
21/07:30am 12.9 WSW 7 8 1028.6 - 0.0 - Partly cloudy - - - - -
21/07:00am 12.6 W 7 8 1028.2 - 0.0 - Partly cloudy - - - - -
21/06:30am 10.8 WSW 7 8 1027.9 - 0.0 - Partly cloudy - - - - -
21/06:00am 9.9 WSW 6 8 1027.6 - 0.0 - - - - - - -
21/05:30am 9.7 W 5 7 1027.1 - 0.0 - - - - - - -
21/05:00am 9.7 W 5 7 1027.0 - 0.0 - - - - - - -
21/04:30am 9.8 WSW 5 6 1026.7 - 0.0 - Partly cloudy - - - - -
21/04:00am 10.2 NW 5 6 1026.5 - 0.0 - Partly cloudy - - - - -
21/03:30am 9.9 NNW 3 5 1026.1 - 0.0 - Partly cloudy - - - - -
21/03:00am 10.1 W 5 6 1026.0 - 0.0 - Cloudy - - - - -
21/02:30am 9.5 WSW 5 7 1026.2 - 0.0 - - - - - - -
21/02:00am 9.4 W 6 7 1026.5 - 0.0 - - - - - - -
21/01:30am 9.9 WSW 6 7 1026.8 - 0.0 - - - - - - -
21/01:00am 10.2 W 6 8 1026.9 - 0.0 - - - - - - -
21/12:30am 10.4 WNW 6 8 1027.0 - 0.0 - - - - - - -
21/12:00am 10.4 W 7 8 1027.0 - 0.0 - - - - - - -
 
Date/Time
EST
Temp

°C
Wind Pressure Rain
since 9am
mm
Weather Cloud Vis
km
Sea
Height
m
Swell
Dir
 
Speed
knots
Gust
knots
hPa Trend Height
m
Period
s
Dir
20/11:30pm 10.9 W 6 7 1027.0 - 0.0 - - - - - - -
20/11:00pm 11.0 WSW 6 7 1026.9 - 0.0 - - - - - - -
20/10:30pm 11.0 WNW 7 9 1026.8 - 0.0 - - - - - - -
20/10:00pm 12.1 W 6 7 1026.7 - 0.0 - - - - - - -
20/09:30pm 12.6 W 6 7 1026.5 - 0.0 - - - - - - -
20/09:00pm 13.3 W 5 7 1026.7 - 0.0 - - - - - - -
20/08:30pm 14.1 W 5 7 1026.6 - 0.0 - - - - - - -
20/08:00pm 14.5 SW 6 10 1026.2 - 0.0 - - - - - - -
20/07:30pm 14.5 SW 5 7 1025.8 - 0.0 - - - - - - -
20/07:00pm 14.6 SSW 5 7 1025.3 - 0.0 - Partly cloudy - - - - -
20/06:30pm 14.8 S 5 7 1024.7 - 0.0 - - - - - - -
20/06:00pm 15.9 S 8 11 1024.2 - 0.0 - Mostly clear - - - - -
20/05:30pm 16.5 SSE 9 15 1023.7 - 0.0 - - - - - - -
20/05:00pm 16.8 SE 10 15 1023.2 - 0.0 - - - - - - -
20/04:30pm 17.4 SSE 12 17 1022.7 - 0.0 - - - - - - -
20/04:00pm 18.1 SSE 13 17 1022.5 - 0.0 - - - - - - -
20/03:30pm 18.5 SE 12 17 1022.1 - 0.0 - - - - - - -
20/03:00pm 18.5 SSE 14 18 1021.9 - 0.0 - - - - - - -
20/02:30pm 19.0 SE 14 19 1021.7 - 0.0 - - - - - - -
20/02:00pm 19.1 SE 14 18 1021.7 - 0.0 - - - - - - -
20/01:30pm 19.3 SSE 15 17 1021.8 - 0.0 - - - - - - -
20/01:00pm 19.3 SE 12 16 1022.0 - 0.0 - Partly cloudy - - - - -
20/12:30pm 20.6 E 11 16 1021.9 - 0.0 - - - - - - -
20/12:00pm 19.8 E 4 9 1022.2 - 0.0 - - - - - - -
20/11:30am 19.7 W 4 8 1022.7 - 0.0 - - - - - - -
20/11:00am 19.4 S 5 10 1022.9 - 0.0 - - - - - - -
20/10:30am 18.5 W 5 8 1023.0 - 0.0 - - - - - - -
20/10:00am 17.8 WSW 6 9 1023.1 - 0.0 - - - - - - -
20/09:30am 16.8 W 7 8 1023.4 - 0.0 - - - - - - -
20/09:00am 14.9 W 7 9 1023.5 - 0.0 - - - - - - -
20/08:30am 13.5 W 6 8 1023.5 - 0.0 - - - - - - -
20/08:00am 11.6 W 7 9 1023.3 - 0.0 - - - - - - -
20/07:30am 10.0 W 6 8 1023.3 - 0.0 - - - - - - -
20/07:00am 8.2 WNW 5 7 1023.1 - 0.0 - - - - - - -
20/06:30am 7.0 W 6 8 1022.5 - 0.0 - - - - - - -
20/06:00am 5.8 W 4 6 1022.0 - 0.0 - - - - - - -
20/05:30am 5.9 W 5 6 1021.7 - 0.0 - - - - - - -
20/05:00am 6.3 W 5 7 1021.3 - 0.0 - - - - - - -
20/04:30am 5.5 WNW 2 5 1020.8 - 0.0 - - - - - - -
20/04:00am 4.7 NW 4 5 1020.7 - 0.0 - - - - - - -
20/03:30am 6.3 NW 4 4 1020.4 - 0.0 - - - - - - -
20/03:00am 5.0 N 2 4 1020.3 - 0.0 - - - - - - -
20/02:30am 5.4 NW 3 4 1020.5 - 0.0 - - - - - - -
20/02:00am 6.3 CALM 0 0 1020.7 - 0.0 - - - - - - -
20/01:30am 5.8 WNW 3 4 1020.8 - 0.0 - - - - - - -
20/01:00am 6.3 NNW 3 4 1021.0 - 0.0 - - - - - - -
20/12:30am 6.2 NNW 4 5 1021.1 - 0.0 - - - - - - -
20/12:00am 8.5 W 6 7 1021.2 - 0.0 - - - - - - -
 
Date/Time
EST
Temp

°C
Wind Pressure Rain
since 9am
mm
Weather Cloud Vis
km
Sea
Height
m
Swell
Dir
 
Speed
knots
Gust
knots
hPa Trend Height
m
Period
s
Dir
19/11:30pm 8.4 SW 3 5 1021.3 - 0.0 - - - - - - -
19/11:00pm 8.4 WSW 3 5 1021.6 - 0.0 - - - - - - -
19/10:30pm 8.7 W 5 5 1021.8 - 0.0 - - - - - - -
19/10:00pm 8.5 CALM 0 0 1021.8 - 0.0 - - - - - - -
19/09:30pm 9.1 W 3 4 1021.7 - 0.0 - - - - - - -
19/09:00pm 9.6 W 4 4 1021.5 - 0.0 - Partly cloudy - - - - -
19/08:30pm 10.4 W 4 5 1021.5 - 0.0 - - - - - - -
19/08:00pm 10.4 CALM 0 1 1021.3 - 0.0 - - - - - - -
19/07:30pm 10.9 NNW 3 5 1021.0 - 0.0 - - - - - - -
19/07:00pm 11.2 NW 3 4 1020.7 - 0.0 - - - - - - -
19/06:30pm 11.9 NNW 3 4 1020.2 - 0.0 - - - - - - -
19/06:00pm 12.8 ENE 3 4 1019.8 - 0.0 - - - - - - -
19/05:30pm 14.7 SE 5 7 1019.4 - 0.0 - - - - - - -
19/05:00pm 16.0 SE 8 11 1019.1 - 0.0 - - - - - - -
19/04:30pm 16.5 SE 7 9 1018.9 - 0.0 - - - - - - -
19/04:00pm 16.7 SE 7 10 1018.7 - 0.0 - - - - - - -
19/03:30pm 17.4 SSW 4 6 1018.5 - 0.0 - - - - - - -
19/03:00pm 17.2 SSW 6 9 1018.5 - 0.0 - Mostly cloudy - - - - -
19/02:30pm 17.7 S 6 9 1018.6 - 0.0 - - - - - - -
19/02:00pm 17.5 SSW 6 9 1018.7 - 0.0 - - - - - - -
19/01:30pm 16.6 S 6 8 1019.0 - 0.0 - - - - - - -
19/01:00pm 16.5 S 6 8 1019.5 - 0.0 - - - - - - -
19/12:30pm 16.5 S 2 6 1020.0 - 0.0 - - - - - - -
19/12:00pm 16.2 WNW 5 7 1020.4 - 0.0 - Cloudy - - - - -
19/11:30am 16.1 W 5 6 1020.8 - 0.0 - - - - - - -
19/11:00am 16.4 SW 5 7 1021.4 - 0.0 - - - - - - -
19/10:30am 15.9 W 7 9 1021.8 - 0.0 - - - - - - -

Other Formats:

Comma delimited format used in spreadsheet applications
http://www.bom.gov.au/fwo/IDN60701/IDN60701.95784.axf

JavaScript Object Notation format (JSON) in row-major order
http://www.bom.gov.au/fwo/IDN60701/IDN60701.95784.json